Briefing drone pour Lamastre

Rechercher une autre localisation

Conditions de vol :


Nous sommes le : Dimanche 04 décembre 2022
Il est 18:00 UTC (19:00 LT)

Lever de soleil : 06:36 UTC (07:36 LT)
Coucher de soleil : 16:27 UTC (17:27 LT)

Météo

L'essentiel des conditions de vol

VIGILANCE MÉTÉO FRANCE - Ardèche (07)
Vigilance Jaune : Neige-verglas
METAR de LFLU
LFLU 041730Z AUTO 08003KT 5000 RA BR FEW019/// OVC028/// ///TCU 06/06 Q1011

Date d'émission: 04/12/2022
Heure d'émission: 17:30 UTC
Vent: 080° pour 3 KT (6 km/h)
Visibilité horizontale: 5000 m
Plafond :
- Peu de nuages à 1900ft (579m)
- Couvert à 2800ft (853m)
Température: 6 °C
Point de rosée: 6 °C
Humidité: 100%
Pression (QNH): 1011 hPa
Conditions: Pluie
Prévision 24h pour Valence (16 km)
Vent : 343° pour 3 KT (10 km/h)
Temperature Maxi: 7 °C
Temperature Min: 7 °C
Humidité : 82%
Condition : Ciel dégagé



Warning: count(): Parameter must be an array or an object that implements Countable in /homepages/6/d509196549/htdocs/droneoxygene/briefing.php on line 743
WEBCAM POUR LAMASTRE

Réglementation

Voler en sécurité

CARTES AERONAUTIQUE 1/500.000
CARTE AZBA (Reseau basse altitude)
CARTES VAC (LFLU)
SUP AIP




Chargement des AIP...
NOTAM (LAMASTRE + Terrain à proximité / FIR )




Chargement des NOTAMS...
CONTACT PREFECTURE 07


Avertissement : Les données mises à disposition sont indicatives. Oxygène Drone ne pourra être tenu responsable de dégâts causés aux biens et aux personnes.